createdAt,value
2023-01-10T00:00:29.893Z,0.00
2023-01-10T00:01:29.851Z,0.00
2023-01-10T00:02:29.900Z,0.00
2023-01-10T00:03:29.888Z,0.00
2023-01-10T00:04:30.011Z,0.00
2023-01-10T00:05:29.941Z,0.00
2023-01-10T00:06:29.949Z,0.00
2023-01-10T00:07:29.966Z,0.00
2023-01-10T00:08:29.998Z,0.00
2023-01-10T00:09:30.014Z,0.00
2023-01-10T00:10:30.034Z,0.00
2023-01-10T00:11:30.049Z,0.00
2023-01-10T00:12:30.081Z,0.00
2023-01-10T00:13:30.088Z,0.00
2023-01-10T00:14:30.124Z,0.00
2023-01-10T00:15:30.136Z,0.00
2023-01-10T00:16:30.152Z,0.00
2023-01-10T00:17:30.167Z,0.00
2023-01-10T00:18:30.195Z,0.00
2023-01-10T00:19:30.211Z,0.00
2023-01-10T00:20:30.245Z,0.00
2023-01-10T00:21:30.253Z,0.00
2023-01-10T00:22:30.271Z,0.00
2023-01-10T00:23:30.292Z,0.00
2023-01-10T00:24:30.310Z,0.00
2023-01-10T00:25:30.327Z,0.00
2023-01-10T00:26:30.351Z,0.00
2023-01-10T00:27:30.371Z,0.00
2023-01-10T00:28:30.390Z,0.00
2023-01-10T00:29:30.413Z,0.00
2023-01-10T00:30:30.433Z,0.00
2023-01-10T00:31:30.506Z,0.00
2023-01-10T00:32:30.472Z,0.00
2023-01-10T00:33:30.494Z,0.00
2023-01-10T00:34:30.512Z,0.00
2023-01-10T00:35:30.533Z,0.00
2023-01-10T00:36:30.571Z,0.00
2023-01-10T00:37:30.578Z,0.00
2023-01-10T00:38:30.601Z,0.00
2023-01-10T00:39:30.617Z,0.00
2023-01-10T00:40:30.632Z,0.00
2023-01-10T00:41:30.653Z,0.00
2023-01-10T00:42:30.687Z,0.00
2023-01-10T00:43:30.698Z,0.00
2023-01-10T00:44:30.714Z,0.00
2023-01-10T00:45:30.765Z,0.00
2023-01-10T00:46:30.803Z,0.00
2023-01-10T00:47:30.774Z,0.00
2023-01-10T00:48:30.803Z,0.00
2023-01-10T00:49:30.817Z,0.00
2023-01-10T00:50:30.835Z,0.00
2023-01-10T00:51:30.860Z,0.00
2023-01-10T00:52:30.875Z,0.00
2023-01-10T00:53:30.889Z,0.00
2023-01-10T00:54:30.913Z,0.00
2023-01-10T00:55:30.936Z,0.00
2023-01-10T00:56:30.962Z,0.00
2023-01-10T00:57:30.970Z,0.00
2023-01-10T00:58:30.996Z,0.00
2023-01-10T00:59:31.019Z,0.00
2023-01-10T01:00:31.040Z,0.00
2023-01-10T01:01:31.147Z,0.00
2023-01-10T01:02:31.143Z,0.00
2023-01-10T01:03:31.094Z,0.00
2023-01-10T01:04:31.116Z,0.00
2023-01-10T01:05:31.135Z,0.00
2023-01-10T01:06:31.157Z,0.00
2023-01-10T01:07:31.180Z,0.00
2023-01-10T01:08:31.197Z,0.00
2023-01-10T01:09:31.214Z,0.00
2023-01-10T01:10:31.243Z,0.00
2023-01-10T01:11:31.259Z,0.00
2023-01-10T01:12:31.277Z,0.00
2023-01-10T01:13:31.307Z,0.00
2023-01-10T01:14:31.315Z,0.00
2023-01-10T01:15:31.410Z,0.00
2023-01-10T01:16:31.357Z,0.00
2023-01-10T01:17:31.379Z,0.00
2023-01-10T01:18:31.400Z,0.00
2023-01-10T01:19:31.422Z,0.00
2023-01-10T01:20:31.436Z,0.00
2023-01-10T01:21:31.488Z,0.00
2023-01-10T01:22:31.476Z,0.00
2023-01-10T01:23:31.497Z,0.00
2023-01-10T01:24:31.522Z,0.00
2023-01-10T01:25:31.535Z,0.00
2023-01-10T01:26:31.560Z,0.00
2023-01-10T01:27:31.578Z,0.00
2023-01-10T01:28:31.596Z,0.00
2023-01-10T01:29:42.415Z,0.00
2023-01-10T01:30:31.632Z,0.00
2023-01-10T01:31:31.693Z,0.00
2023-01-10T01:32:31.676Z,0.00
2023-01-10T01:33:31.696Z,0.00
2023-01-10T01:34:31.715Z,0.00
2023-01-10T01:35:31.734Z,0.00
2023-01-10T01:36:31.766Z,0.00
2023-01-10T01:37:31.779Z,0.00
2023-01-10T01:38:31.796Z,0.00
2023-01-10T01:39:31.815Z,0.00
2023-01-10T01:40:31.835Z,0.00
2023-01-10T01:41:31.853Z,0.00
2023-01-10T01:42:31.875Z,0.00
2023-01-10T01:43:31.905Z,0.00
2023-01-10T01:44:31.916Z,0.00
2023-01-10T01:45:31.952Z,0.00
2023-01-10T01:46:31.996Z,0.00
2023-01-10T01:47:31.978Z,0.00
2023-01-10T01:48:31.992Z,0.00
2023-01-10T01:49:32.021Z,0.00
2023-01-10T01:50:32.035Z,0.00
2023-01-10T01:51:32.080Z,0.00
2023-01-10T01:52:32.074Z,0.00
2023-01-10T01:53:32.096Z,0.00
2023-01-10T01:54:32.113Z,0.00
2023-01-10T01:55:32.133Z,0.00
2023-01-10T01:56:32.151Z,0.00
2023-01-10T01:57:32.178Z,0.00
2023-01-10T01:58:32.196Z,0.00
2023-01-10T01:59:32.210Z,0.00
2023-01-10T02:00:32.231Z,0.00
2023-01-10T02:01:32.343Z,0.00
2023-01-10T02:02:32.315Z,0.00
2023-01-10T02:03:32.328Z,0.00
2023-01-10T02:04:32.314Z,0.00
2023-01-10T02:05:32.341Z,0.00
2023-01-10T02:06:32.348Z,0.00
2023-01-10T02:07:32.372Z,0.00
2023-01-10T02:08:32.388Z,0.00
2023-01-10T02:09:32.427Z,0.00
2023-01-10T02:10:32.436Z,0.00
2023-01-10T02:11:32.453Z,0.00
2023-01-10T02:12:32.466Z,0.00
2023-01-10T02:13:32.486Z,0.00
2023-01-10T02:14:32.510Z,0.00
2023-01-10T02:15:32.528Z,0.00
2023-01-10T02:16:32.547Z,0.00
2023-01-10T02:17:32.564Z,0.00
2023-01-10T02:18:32.588Z,0.00
2023-01-10T02:19:32.607Z,0.00
2023-01-10T02:20:32.626Z,0.00
2023-01-10T02:21:32.645Z,0.00
2023-01-10T02:22:32.667Z,0.00
2023-01-10T02:23:32.696Z,0.00
2023-01-10T02:24:32.712Z,0.00
2023-01-10T02:25:32.732Z,0.00
2023-01-10T02:26:32.744Z,0.00
2023-01-10T02:27:32.770Z,0.00
2023-01-10T02:28:32.798Z,0.00
2023-01-10T02:29:32.806Z,0.00
2023-01-10T02:30:32.825Z,0.00
2023-01-10T02:31:32.865Z,0.00
2023-01-10T02:32:45.537Z,0.00
2023-01-10T02:33:32.887Z,0.00
2023-01-10T02:34:32.908Z,0.00
2023-01-10T02:35:32.929Z,0.00
2023-01-10T02:36:32.941Z,0.00
2023-01-10T02:37:32.970Z,0.00
2023-01-10T02:38:32.992Z,0.00
2023-01-10T02:39:33.001Z,0.00
2023-01-10T02:40:33.029Z,0.00
2023-01-10T02:41:33.043Z,0.00
2023-01-10T02:42:33.070Z,0.00
2023-01-10T02:43:33.083Z,0.00
2023-01-10T02:44:33.103Z,0.00
2023-01-10T02:45:33.121Z,0.00
2023-01-10T02:46:33.164Z,0.00
2023-01-10T02:47:33.163Z,0.00
2023-01-10T02:48:33.185Z,0.00
2023-01-10T02:49:33.202Z,0.00
2023-01-10T02:50:33.222Z,0.00
2023-01-10T02:51:33.243Z,0.00
2023-01-10T02:52:33.265Z,0.00
2023-01-10T02:53:33.292Z,0.00
2023-01-10T02:54:33.302Z,0.00
2023-01-10T02:55:33.324Z,0.00
2023-01-10T02:56:33.340Z,0.00
2023-01-10T02:57:33.363Z,0.00
2023-01-10T02:58:33.385Z,0.00
2023-01-10T02:59:33.405Z,0.00
2023-01-10T03:00:33.422Z,0.00
2023-01-10T03:01:33.481Z,0.00
2023-01-10T03:02:33.468Z,0.00
2023-01-10T03:03:33.500Z,0.00
2023-01-10T03:04:33.514Z,0.00
2023-01-10T03:05:33.526Z,0.00
2023-01-10T03:06:33.539Z,0.00
2023-01-10T03:07:33.561Z,0.00
2023-01-10T03:08:33.578Z,0.00
2023-01-10T03:09:34.469Z,0.00
2023-01-10T03:10:33.625Z,0.00
2023-01-10T03:11:33.640Z,0.00
2023-01-10T03:12:33.673Z,0.00
2023-01-10T03:13:33.687Z,0.00
2023-01-10T03:14:33.703Z,0.00
2023-01-10T03:15:33.722Z,0.00
2023-01-10T03:16:33.742Z,0.00
2023-01-10T03:17:33.760Z,0.00
2023-01-10T03:18:33.780Z,0.00
2023-01-10T03:19:33.805Z,0.00
2023-01-10T03:20:33.824Z,0.00
2023-01-10T03:21:33.837Z,0.00
2023-01-10T03:22:33.867Z,0.00
2023-01-10T03:23:33.881Z,0.00
2023-01-10T03:24:33.942Z,0.00
2023-01-10T03:25:33.918Z,0.00
2023-01-10T03:26:33.939Z,0.00
2023-01-10T03:27:33.963Z,0.00
2023-01-10T03:28:33.979Z,0.00
2023-01-10T03:29:34.027Z,0.00
2023-01-10T03:30:34.021Z,0.00
2023-01-10T03:31:34.084Z,0.00
2023-01-10T03:32:34.076Z,0.00
2023-01-10T03:33:34.082Z,0.00
2023-01-10T03:34:34.104Z,0.00
2023-01-10T03:35:34.121Z,0.00
2023-01-10T03:36:34.140Z,0.00
2023-01-10T03:37:34.160Z,0.00
2023-01-10T03:38:34.201Z,0.00
2023-01-10T03:39:34.202Z,0.00
2023-01-10T03:40:34.220Z,0.00
2023-01-10T03:41:34.242Z,0.00
2023-01-10T03:42:34.272Z,0.00
2023-01-10T03:43:34.279Z,0.00
2023-01-10T03:44:34.322Z,0.00
2023-01-10T03:45:34.325Z,0.00
2023-01-10T03:46:34.371Z,0.00
2023-01-10T03:47:34.361Z,0.00
2023-01-10T03:48:34.383Z,0.00
2023-01-10T03:49:34.403Z,0.00
2023-01-10T03:50:34.419Z,0.00
2023-01-10T03:51:34.442Z,0.00
2023-01-10T03:52:34.460Z,0.00
2023-01-10T03:53:34.486Z,0.00
2023-01-10T03:54:34.501Z,0.00
2023-01-10T03:55:34.522Z,0.00
2023-01-10T03:56:34.572Z,0.00
2023-01-10T03:57:34.564Z,0.00
2023-01-10T03:58:34.583Z,0.00
2023-01-10T03:59:34.604Z,0.00
2023-01-10T04:00:34.628Z,0.00
2023-01-10T04:01:34.708Z,0.00
2023-01-10T04:02:34.666Z,0.00
2023-01-10T04:03:34.686Z,0.00
2023-01-10T04:04:34.703Z,0.00
2023-01-10T04:05:34.723Z,0.00
2023-01-10T04:06:34.749Z,0.00
2023-01-10T04:07:34.776Z,0.00
2023-01-10T04:08:34.784Z,0.00
2023-01-10T04:09:34.810Z,0.00
2023-01-10T04:10:34.824Z,0.00
2023-01-10T04:11:34.849Z,0.00
2023-01-10T04:12:34.875Z,0.00
2023-01-10T04:13:34.886Z,0.00
2023-01-10T04:14:34.917Z,0.00
2023-01-10T04:15:34.934Z,0.00
2023-01-10T04:16:35.000Z,0.00
2023-01-10T04:17:34.964Z,0.00
2023-01-10T04:18:34.987Z,0.00
2023-01-10T04:19:35.003Z,0.00
2023-01-10T04:20:35.029Z,0.00
2023-01-10T04:21:35.044Z,0.00
2023-01-10T04:22:35.069Z,0.00
2023-01-10T04:23:35.089Z,0.00
2023-01-10T04:24:35.113Z,0.00
2023-01-10T04:25:35.130Z,0.00
2023-01-10T04:26:35.146Z,0.00
2023-01-10T04:27:35.165Z,0.00
2023-01-10T04:28:35.187Z,0.00
2023-01-10T04:29:35.212Z,0.00
2023-01-10T04:30:35.227Z,0.00
2023-01-10T04:31:35.253Z,0.00
2023-01-10T04:32:35.279Z,0.00
2023-01-10T04:33:35.293Z,0.00
2023-01-10T04:34:35.306Z,0.00
2023-01-10T04:35:35.324Z,0.00
2023-01-10T04:36:35.343Z,0.00
2023-01-10T04:37:35.364Z,0.00
2023-01-10T04:38:35.384Z,0.00
2023-01-10T04:39:35.408Z,0.00
2023-01-10T04:40:35.421Z,0.00
2023-01-10T04:41:35.449Z,0.00
2023-01-10T04:42:35.464Z,0.00
2023-01-10T04:43:35.495Z,0.00
2023-01-10T04:44:35.549Z,0.00
2023-01-10T04:45:35.669Z,0.00
2023-01-10T04:46:35.539Z,0.00
2023-01-10T04:47:35.564Z,0.00
2023-01-10T04:48:35.584Z,0.00
2023-01-10T04:49:35.602Z,0.00
2023-01-10T04:50:35.619Z,0.00
2023-01-10T04:51:35.647Z,0.00
2023-01-10T04:52:35.666Z,0.00
2023-01-10T04:53:35.712Z,0.00
2023-01-10T04:54:35.701Z,0.00
2023-01-10T04:55:35.729Z,0.00
2023-01-10T04:56:35.761Z,0.00
2023-01-10T04:57:35.769Z,0.00
2023-01-10T04:58:35.782Z,0.00
2023-01-10T04:59:35.806Z,0.00
2023-01-10T05:00:35.818Z,0.00
2023-01-10T05:01:35.842Z,0.00
2023-01-10T05:02:35.921Z,0.00
2023-01-10T05:03:35.890Z,0.00
2023-01-10T05:04:35.897Z,0.00
2023-01-10T05:05:35.929Z,0.00
2023-01-10T05:06:35.937Z,0.00
2023-01-10T05:07:35.958Z,0.00
2023-01-10T05:08:35.977Z,0.00
2023-01-10T05:09:36.003Z,0.00
2023-01-10T05:10:36.017Z,0.00
2023-01-10T05:11:36.045Z,0.00
2023-01-10T05:12:36.056Z,0.00
2023-01-10T05:13:36.081Z,0.00
2023-01-10T05:14:36.105Z,0.00
2023-01-10T05:15:36.145Z,0.00
2023-01-10T05:16:36.184Z,0.00
2023-01-10T05:17:36.152Z,0.00
2023-01-10T05:18:36.181Z,0.00
2023-01-10T05:19:36.193Z,0.00
2023-01-10T05:20:36.208Z,0.00
2023-01-10T05:21:36.266Z,0.00
2023-01-10T05:22:36.259Z,0.00
2023-01-10T05:23:36.277Z,0.00
2023-01-10T05:24:36.291Z,0.00
2023-01-10T05:25:36.314Z,0.00
2023-01-10T05:26:36.326Z,0.00
2023-01-10T05:27:36.356Z,0.00
2023-01-10T05:28:36.391Z,0.00
2023-01-10T05:29:36.392Z,0.00
2023-01-10T05:30:36.409Z,0.00
2023-01-10T05:31:36.469Z,0.00
2023-01-10T05:32:36.445Z,0.00
2023-01-10T05:33:36.464Z,0.00
2023-01-10T05:34:36.488Z,0.00
2023-01-10T05:35:36.515Z,0.00
2023-01-10T05:36:36.523Z,0.00
2023-01-10T05:37:38.026Z,0.00
2023-01-10T05:38:36.576Z,0.00
2023-01-10T05:39:36.581Z,0.00
2023-01-10T05:40:36.604Z,0.00
2023-01-10T05:41:36.625Z,0.00
2023-01-10T05:42:36.663Z,0.00
2023-01-10T05:43:36.663Z,0.00
2023-01-10T05:44:36.693Z,0.00
2023-01-10T05:45:36.726Z,0.00
2023-01-10T05:46:36.722Z,0.00
2023-01-10T05:47:36.744Z,0.00
2023-01-10T05:48:36.761Z,0.00
2023-01-10T05:49:36.782Z,0.00
2023-01-10T05:50:36.802Z,0.00
2023-01-10T05:51:36.837Z,0.00
2023-01-10T05:52:36.842Z,0.00
2023-01-10T05:53:36.865Z,0.00
2023-01-10T05:54:36.891Z,0.00
2023-01-10T05:55:36.898Z,0.00
2023-01-10T05:56:36.921Z,0.00
2023-01-10T05:57:36.936Z,0.00
2023-01-10T05:58:36.958Z,0.00
2023-01-10T05:59:36.984Z,0.00
2023-01-10T06:00:36.998Z,0.00
2023-01-10T06:01:37.020Z,0.00
2023-01-10T06:02:37.160Z,0.00
2023-01-10T06:03:37.058Z,0.00
2023-01-10T06:04:37.108Z,0.00
2023-01-10T06:05:37.099Z,0.00
2023-01-10T06:06:37.124Z,0.00
2023-01-10T06:07:37.140Z,0.00
2023-01-10T06:08:37.224Z,0.00
2023-01-10T06:09:37.176Z,0.00
2023-01-10T06:10:37.199Z,0.00
2023-01-10T06:11:37.222Z,0.00
2023-01-10T06:12:37.238Z,0.00
2023-01-10T06:13:37.259Z,0.00
2023-01-10T06:14:37.279Z,0.00
2023-01-10T06:15:37.356Z,0.00
2023-01-10T06:16:37.315Z,0.00
2023-01-10T06:17:37.340Z,0.00
2023-01-10T06:18:37.363Z,0.00
2023-01-10T06:19:37.379Z,0.00
2023-01-10T06:20:37.416Z,0.00
2023-01-10T06:21:37.419Z,0.00
2023-01-10T06:22:37.443Z,0.00
2023-01-10T06:23:37.503Z,0.00
2023-01-10T06:24:37.502Z,0.00
2023-01-10T06:25:37.508Z,0.00
2023-01-10T06:26:37.531Z,0.00
2023-01-10T06:27:37.554Z,0.00
2023-01-10T06:28:37.564Z,0.00
2023-01-10T06:29:37.577Z,0.00
2023-01-10T06:30:37.605Z,0.00
2023-01-10T06:31:37.637Z,0.00
2023-01-10T06:32:37.659Z,0.00
2023-01-10T06:33:37.658Z,0.00
2023-01-10T06:34:37.674Z,0.00
2023-01-10T06:35:37.703Z,0.00
2023-01-10T06:36:37.715Z,0.00
2023-01-10T06:37:37.736Z,0.00
2023-01-10T06:38:37.762Z,0.00
2023-01-10T06:39:37.776Z,0.00
2023-01-10T06:40:37.794Z,0.00
2023-01-10T06:41:37.816Z,0.00
2023-01-10T06:42:37.843Z,0.00
2023-01-10T06:43:37.854Z,0.00
2023-01-10T06:44:37.877Z,0.00
2023-01-10T06:45:38.007Z,0.00
2023-01-10T06:46:37.911Z,0.00
2023-01-10T06:47:37.951Z,0.00
2023-01-10T06:48:37.960Z,0.00
2023-01-10T06:49:37.971Z,0.00
2023-01-10T06:50:37.993Z,0.00
2023-01-10T06:51:38.037Z,0.00
2023-01-10T06:52:38.033Z,0.00
2023-01-10T06:53:38.052Z,0.00
2023-01-10T06:54:38.072Z,0.00
2023-01-10T06:55:38.099Z,0.00
2023-01-10T06:56:38.113Z,0.00
2023-01-10T06:57:38.140Z,0.00
2023-01-10T06:58:38.150Z,0.00
2023-01-10T06:59:38.173Z,0.00
2023-01-10T07:00:38.224Z,0.00
2023-01-10T07:01:38.323Z,0.00
2023-01-10T07:02:38.230Z,0.00
2023-01-10T07:03:38.329Z,4.00
2023-01-10T07:04:38.272Z,4.00
2023-01-10T07:05:38.293Z,4.00
2023-01-10T07:06:38.326Z,4.00
2023-01-10T07:07:38.334Z,4.00
2023-01-10T07:08:38.350Z,4.00
2023-01-10T07:09:38.372Z,8.00
2023-01-10T07:10:38.390Z,8.00
2023-01-10T07:11:38.416Z,12.00
2023-01-10T07:12:38.437Z,12.00
2023-01-10T07:13:38.451Z,12.00
2023-01-10T07:14:38.470Z,20.00
2023-01-10T07:15:38.498Z,24.00
2023-01-10T07:16:38.569Z,24.00
2023-01-10T07:17:38.528Z,28.00
2023-01-10T07:18:38.558Z,24.00
2023-01-10T07:19:38.587Z,24.00
2023-01-10T07:20:38.589Z,28.00
2023-01-10T07:21:38.608Z,32.00
2023-01-10T07:22:38.636Z,36.00
2023-01-10T07:23:38.654Z,36.00
2023-01-10T07:24:38.666Z,36.00
2023-01-10T07:25:38.690Z,36.00
2023-01-10T07:26:38.708Z,48.00
2023-01-10T07:27:38.729Z,60.00
2023-01-10T07:28:38.754Z,72.00
2023-01-10T07:29:38.790Z,84.00
2023-01-10T07:30:38.795Z,104.00
2023-01-10T07:31:38.829Z,120.00
2023-01-10T07:32:38.829Z,132.00
2023-01-10T07:33:38.853Z,136.00
2023-01-10T07:34:38.864Z,116.00
2023-01-10T07:35:38.897Z,100.00
2023-01-10T07:36:39.530Z,100.00
2023-01-10T07:37:38.930Z,100.00
2023-01-10T07:38:38.945Z,124.00
2023-01-10T07:39:38.970Z,156.00
2023-01-10T07:40:38.995Z,184.00
2023-01-10T07:41:39.017Z,208.00
2023-01-10T07:42:39.032Z,244.00
2023-01-10T07:43:39.055Z,268.00
2023-01-10T07:44:39.069Z,284.00
2023-01-10T07:45:39.092Z,280.00
2023-01-10T07:46:39.167Z,288.00
2023-01-10T07:47:39.137Z,288.00
2023-01-10T07:48:39.154Z,304.00
2023-01-10T07:49:39.164Z,320.00
2023-01-10T07:50:39.189Z,336.00
2023-01-10T07:51:39.207Z,332.00
2023-01-10T07:52:39.229Z,316.00
2023-01-10T07:53:39.244Z,360.00
2023-01-10T07:54:39.264Z,380.00
2023-01-10T07:55:39.295Z,352.00
2023-01-10T07:56:39.304Z,328.00
2023-01-10T07:57:39.327Z,328.00
2023-01-10T07:58:39.347Z,360.00
2023-01-10T07:59:39.366Z,384.00
2023-01-10T08:00:39.383Z,428.00
2023-01-10T08:01:39.406Z,452.00
2023-01-10T08:02:39.601Z,476.00
2023-01-10T08:03:39.580Z,504.00
2023-01-10T08:04:39.472Z,536.00
2023-01-10T08:05:39.486Z,536.00
2023-01-10T08:06:39.525Z,476.00
2023-01-10T08:07:39.525Z,316.00
2023-01-10T08:08:39.553Z,240.00
2023-01-10T08:09:39.578Z,252.00
2023-01-10T08:10:39.588Z,276.00
2023-01-10T08:11:41.518Z,356.00
2023-01-10T08:12:39.635Z,496.00
2023-01-10T08:13:39.649Z,688.00
2023-01-10T08:14:39.719Z,816.00
2023-01-10T08:15:39.724Z,788.00
2023-01-10T08:16:39.714Z,904.00
2023-01-10T08:17:39.738Z,912.00
2023-01-10T08:18:39.746Z,924.00
2023-01-10T08:19:39.770Z,920.00
2023-01-10T08:20:39.801Z,888.00
2023-01-10T08:21:39.807Z,904.00
2023-01-10T08:22:39.828Z,972.00
2023-01-10T08:23:39.848Z,940.00
2023-01-10T08:24:39.866Z,856.00
2023-01-10T08:25:39.883Z,840.00
2023-01-10T08:26:39.909Z,784.00
2023-01-10T08:27:39.928Z,704.00
2023-01-10T08:28:39.950Z,724.00
2023-01-10T08:29:39.974Z,624.00
2023-01-10T08:30:40.013Z,632.00
2023-01-10T08:31:40.003Z,676.00
2023-01-10T08:32:40.028Z,788.00
2023-01-10T08:33:40.044Z,972.00
2023-01-10T08:34:40.067Z,1188.00
2023-01-10T08:35:40.089Z,1308.00
2023-01-10T08:36:40.127Z,1404.00
2023-01-10T08:37:40.123Z,1500.00
2023-01-10T08:38:40.149Z,1572.00
2023-01-10T08:39:40.170Z,1636.00
2023-01-10T08:40:40.188Z,1660.00
2023-01-10T08:41:40.204Z,1664.00
2023-01-10T08:42:40.231Z,1692.00
2023-01-10T08:43:40.246Z,1688.00
2023-01-10T08:44:40.278Z,1672.00
2023-01-10T08:45:40.284Z,1656.00
2023-01-10T08:46:40.362Z,1680.00
2023-01-10T08:47:40.332Z,1664.00
2023-01-10T08:48:40.349Z,1684.00
2023-01-10T08:49:40.366Z,1712.00
2023-01-10T08:50:40.397Z,1684.00
2023-01-10T08:51:40.414Z,1628.00
2023-01-10T08:52:40.430Z,1664.00
2023-01-10T08:53:40.459Z,1740.00
2023-01-10T08:54:40.469Z,1772.00
2023-01-10T08:55:47.637Z,1756.00
2023-01-10T08:57:45.004Z,1928.00
2023-01-10T08:58:44.505Z,2008.00
2023-01-10T09:00:48.502Z,2004.00
2023-01-10T09:01:48.569Z,1952.00
2023-01-10T09:03:53.008Z,2080.00
2023-01-10T09:04:52.535Z,2164.00
2023-01-10T09:06:56.556Z,2176.00
2023-01-10T09:07:56.556Z,2092.00
2023-01-10T09:10:01.541Z,1904.00
2023-01-10T09:11:00.595Z,1908.00
2023-01-10T09:13:04.579Z,2056.00
2023-01-10T09:14:04.590Z,1960.00
2023-01-10T09:16:09.169Z,2080.00
2023-01-10T09:17:08.604Z,1972.00
2023-01-10T09:19:12.624Z,2300.00
2023-01-10T09:20:12.627Z,2900.00
2023-01-10T09:22:07.062Z,3272.00
2023-01-10T09:23:05.615Z,2904.00
2023-01-10T09:25:09.589Z,2884.00
2023-01-10T09:26:09.599Z,3028.00
2023-01-10T09:28:14.096Z,3224.00
2023-01-10T09:29:13.611Z,2596.00
2023-01-10T09:31:06.556Z,2392.00
2023-01-10T09:32:06.551Z,2264.00
2023-01-10T09:34:11.077Z,1732.00
2023-01-10T09:35:10.761Z,1792.00
2023-01-10T09:37:03.922Z,2716.00
2023-01-10T09:38:03.912Z,3764.00
2023-01-10T09:40:08.401Z,3880.00
2023-01-10T09:41:07.932Z,4504.00
2023-01-10T09:43:11.940Z,3784.00
2023-01-10T09:44:11.955Z,3128.00
2023-01-10T09:46:16.454Z,3096.00
2023-01-10T09:47:22.450Z,2392.00
2023-01-10T09:48:15.979Z,2536.00
2023-01-10T09:49:15.999Z,2756.00
2023-01-10T09:50:16.023Z,2800.00
2023-01-10T09:51:16.048Z,2468.00
2023-01-10T09:52:16.061Z,2236.00
2023-01-10T09:53:16.082Z,2292.00
2023-01-10T09:54:16.105Z,2376.00
2023-01-10T09:55:16.147Z,2240.00
2023-01-10T09:56:16.144Z,2332.00
2023-01-10T09:57:16.169Z,2700.00
2023-01-10T09:58:16.185Z,3204.00
2023-01-10T09:59:16.207Z,3504.00
2023-01-10T10:00:16.227Z,3720.00
2023-01-10T10:01:16.295Z,3964.00
2023-01-10T10:02:16.269Z,3660.00
2023-01-10T10:03:16.305Z,3040.00
2023-01-10T10:04:16.339Z,1936.00
2023-01-10T10:05:16.332Z,1948.00
2023-01-10T10:06:16.351Z,1980.00
2023-01-10T10:07:16.377Z,1780.00
2023-01-10T10:08:16.399Z,2280.00
2023-01-10T10:09:16.417Z,2660.00
2023-01-10T10:10:16.453Z,3188.00
2023-01-10T10:11:16.469Z,3336.00
2023-01-10T10:12:16.498Z,3668.00
2023-01-10T10:13:26.417Z,4424.00
2023-01-10T10:14:16.528Z,4300.00
2023-01-10T10:15:16.550Z,3316.00
2023-01-10T10:16:16.585Z,2984.00
2023-01-10T10:17:16.586Z,2192.00
2023-01-10T10:18:16.602Z,2040.00
2023-01-10T10:19:16.626Z,2320.00
2023-01-10T10:20:16.692Z,3764.00
2023-01-10T10:21:16.665Z,3624.00
2023-01-10T10:22:19.047Z,2804.00
2023-01-10T10:23:16.714Z,2252.00
2023-01-10T10:24:16.728Z,2240.00
2023-01-10T10:25:16.751Z,2916.00
2023-01-10T10:26:16.774Z,3156.00
2023-01-10T10:27:16.793Z,2804.00
2023-01-10T10:28:16.825Z,2200.00
2023-01-10T10:29:16.859Z,2368.00
2023-01-10T10:30:16.860Z,2560.00
2023-01-10T10:31:16.902Z,2860.00
2023-01-10T10:32:16.891Z,3444.00
2023-01-10T10:33:16.912Z,4012.00
2023-01-10T10:34:16.940Z,4032.00
2023-01-10T10:35:16.964Z,3868.00
2023-01-10T10:36:16.978Z,3904.00
2023-01-10T10:37:17.000Z,3996.00
2023-01-10T10:38:17.020Z,3656.00
2023-01-10T10:39:17.041Z,3000.00
2023-01-10T10:40:17.074Z,3436.00
2023-01-10T10:41:17.085Z,3788.00
2023-01-10T10:42:17.109Z,4800.00
2023-01-10T10:43:17.128Z,4884.00
2023-01-10T10:44:17.147Z,4652.00
2023-01-10T10:45:17.186Z,4204.00
2023-01-10T10:46:17.222Z,4032.00
2023-01-10T10:47:17.215Z,4416.00
2023-01-10T10:48:17.231Z,4188.00
2023-01-10T10:49:18.713Z,3824.00
2023-01-10T10:50:17.268Z,3604.00
2023-01-10T10:51:17.299Z,3380.00
2023-01-10T10:52:17.318Z,3736.00
2023-01-10T10:53:17.340Z,3916.00
2023-01-10T10:54:17.368Z,4312.00
2023-01-10T10:55:17.381Z,4232.00
2023-01-10T10:56:17.405Z,4444.00
2023-01-10T10:57:17.429Z,4252.00
2023-01-10T10:58:17.446Z,3948.00
2023-01-10T10:59:17.469Z,4120.00
2023-01-10T11:00:17.487Z,4512.00
2023-01-10T11:01:17.633Z,4396.00
2023-01-10T11:02:17.537Z,4296.00
2023-01-10T11:03:17.560Z,4424.00
2023-01-10T11:04:17.573Z,4436.00
2023-01-10T11:05:17.595Z,4280.00
2023-01-10T11:06:17.629Z,4332.00
2023-01-10T11:07:17.640Z,4300.00
2023-01-10T11:08:17.678Z,4588.00
2023-01-10T11:09:17.695Z,4776.00
2023-01-10T11:10:17.707Z,5084.00
2023-01-10T11:11:17.721Z,5200.00
2023-01-10T11:12:17.753Z,5368.00
2023-01-10T11:13:17.768Z,5384.00
2023-01-10T11:14:17.783Z,5456.00
2023-01-10T11:15:17.815Z,5612.00
2023-01-10T11:16:17.878Z,5652.00
2023-01-10T11:17:17.853Z,5464.00
2023-01-10T11:18:17.885Z,5392.00
2023-01-10T11:19:17.935Z,5220.00
2023-01-10T11:20:17.922Z,5104.00
2023-01-10T11:21:19.653Z,4956.00
2023-01-10T11:22:17.960Z,4752.00
2023-01-10T11:23:17.977Z,4732.00
2023-01-10T11:24:18.002Z,4756.00
2023-01-10T11:25:18.031Z,5048.00
2023-01-10T11:26:18.045Z,4860.00
2023-01-10T11:27:18.077Z,4896.00
2023-01-10T11:28:18.090Z,4888.00
2023-01-10T11:29:18.120Z,4888.00
2023-01-10T11:30:18.131Z,4608.00
2023-01-10T11:31:18.175Z,4944.00
2023-01-10T11:32:18.178Z,4908.00
2023-01-10T11:33:18.196Z,4828.00
2023-01-10T11:34:18.226Z,5328.00
2023-01-10T11:35:18.240Z,5040.00
2023-01-10T11:36:18.265Z,5056.00
2023-01-10T11:37:18.286Z,5324.00
2023-01-10T11:38:18.319Z,5008.00
2023-01-10T11:39:18.333Z,4892.00
2023-01-10T11:40:18.358Z,4860.00
2023-01-10T11:41:18.370Z,5124.00
2023-01-10T11:42:18.391Z,5172.00
2023-01-10T11:43:18.413Z,5092.00
2023-01-10T11:44:18.457Z,5032.00
2023-01-10T11:45:18.479Z,4768.00
2023-01-10T11:46:18.491Z,4776.00
2023-01-10T11:47:18.502Z,4424.00
2023-01-10T11:48:19.273Z,3620.00
2023-01-10T11:49:18.545Z,3092.00
2023-01-10T11:50:18.571Z,3464.00
2023-01-10T11:51:18.589Z,3356.00
2023-01-10T11:52:18.616Z,3328.00
2023-01-10T11:53:18.642Z,2568.00
2023-01-10T11:54:18.667Z,2672.00
2023-01-10T11:55:18.677Z,2840.00
2023-01-10T11:56:18.703Z,2600.00
2023-01-10T11:57:18.717Z,2256.00
2023-01-10T11:58:18.742Z,2444.00
2023-01-10T11:59:18.777Z,3148.00
2023-01-10T12:00:18.791Z,3344.00
2023-01-10T12:01:18.832Z,3616.00
2023-01-10T12:02:18.841Z,3904.00
2023-01-10T12:03:18.852Z,4184.00
2023-01-10T12:04:18.873Z,4496.00
2023-01-10T12:05:19.030Z,4612.00
2023-01-10T12:06:18.919Z,4688.00
2023-01-10T12:07:18.939Z,4684.00
2023-01-10T12:08:18.971Z,4776.00
2023-01-10T12:09:18.981Z,4720.00
2023-01-10T12:10:21.025Z,4688.00
2023-01-10T12:11:19.028Z,4648.00
2023-01-10T12:12:19.055Z,4736.00
2023-01-10T12:13:19.070Z,4848.00
2023-01-10T12:14:19.101Z,4856.00
2023-01-10T12:15:19.112Z,4896.00
2023-01-10T12:16:19.155Z,4864.00
2023-01-10T12:17:19.154Z,4804.00
2023-01-10T12:18:19.174Z,4876.00
2023-01-10T12:19:19.208Z,4788.00
2023-01-10T12:20:19.217Z,4820.00
2023-01-10T12:21:19.244Z,4620.00
2023-01-10T12:22:19.268Z,4312.00
2023-01-10T12:23:19.293Z,4080.00
2023-01-10T12:24:19.307Z,3860.00
2023-01-10T12:25:19.328Z,3700.00
2023-01-10T12:26:19.379Z,3660.00
2023-01-10T12:27:19.373Z,3884.00
2023-01-10T12:28:19.390Z,4044.00
2023-01-10T12:29:19.416Z,4132.00
2023-01-10T12:30:19.460Z,3992.00
2023-01-10T12:31:19.464Z,4028.00
2023-01-10T12:32:19.480Z,4388.00
2023-01-10T12:33:19.503Z,4504.00
2023-01-10T12:34:19.529Z,4532.00
2023-01-10T12:35:19.548Z,4552.00
2023-01-10T12:36:19.569Z,4552.00
2023-01-10T12:37:19.587Z,4584.00
2023-01-10T12:38:19.609Z,4640.00
2023-01-10T12:39:19.636Z,4584.00
2023-01-10T12:40:19.658Z,4556.00
2023-01-10T12:41:19.675Z,4520.00
2023-01-10T12:42:19.699Z,4384.00
2023-01-10T12:43:19.716Z,4288.00
2023-01-10T12:44:19.735Z,4304.00
2023-01-10T12:45:19.766Z,4308.00
2023-01-10T12:46:33.699Z,4244.00
2023-01-10T12:47:19.865Z,4280.00
2023-01-10T12:48:19.831Z,4328.00
2023-01-10T12:49:19.868Z,4328.00
2023-01-10T12:50:19.870Z,4300.00
2023-01-10T12:51:19.895Z,4284.00
2023-01-10T12:52:21.959Z,4252.00
2023-01-10T12:53:19.934Z,4232.00
2023-01-10T12:54:19.953Z,4192.00
2023-01-10T12:55:19.977Z,4148.00
2023-01-10T12:56:20.000Z,4112.00
2023-01-10T12:57:20.037Z,4080.00
2023-01-10T12:58:20.045Z,4036.00
2023-01-10T12:59:36.079Z,4012.00
2023-01-10T13:00:20.087Z,3980.00
2023-01-10T13:01:20.189Z,3912.00
2023-01-10T13:02:20.247Z,3872.00
2023-01-10T13:03:20.160Z,3852.00
2023-01-10T13:04:20.175Z,3828.00
2023-01-10T13:05:20.203Z,3816.00
2023-01-10T13:06:20.219Z,3832.00